sensor_id;sensor_type;location;lat;lon;timestamp;temperature;humidity
7254;DHT22;4060;49.186;9.226;2023-10-13T00:01:32;21.30;59.70
7254;DHT22;4060;49.186;9.226;2023-10-13T00:04:05;21.30;59.70
7254;DHT22;4060;49.186;9.226;2023-10-13T00:06:35;21.30;59.70
7254;DHT22;4060;49.186;9.226;2023-10-13T00:09:05;21.30;59.70
7254;DHT22;4060;49.186;9.226;2023-10-13T00:11:45;21.30;59.80
7254;DHT22;4060;49.186;9.226;2023-10-13T00:14:15;21.30;59.80
7254;DHT22;4060;49.186;9.226;2023-10-13T00:16:45;21.30;59.80
7254;DHT22;4060;49.186;9.226;2023-10-13T00:19:31;21.30;59.90
7254;DHT22;4060;49.186;9.226;2023-10-13T00:22:14;21.30;59.90
7254;DHT22;4060;49.186;9.226;2023-10-13T00:24:45;21.30;59.90
7254;DHT22;4060;49.186;9.226;2023-10-13T00:27:16;21.30;60.80
7254;DHT22;4060;49.186;9.226;2023-10-13T00:30:02;21.30;60.10
7254;DHT22;4060;49.186;9.226;2023-10-13T00:32:51;21.30;60.10
7254;DHT22;4060;49.186;9.226;2023-10-13T00:35:24;21.20;60.00
7254;DHT22;4060;49.186;9.226;2023-10-13T00:37:55;21.20;60.00
7254;DHT22;4060;49.186;9.226;2023-10-13T00:40:32;21.20;60.00
7254;DHT22;4060;49.186;9.226;2023-10-13T00:43:19;21.20;60.10
7254;DHT22;4060;49.186;9.226;2023-10-13T00:46:12;21.20;60.10
7254;DHT22;4060;49.186;9.226;2023-10-13T00:48:46;21.20;60.20
7254;DHT22;4060;49.186;9.226;2023-10-13T00:51:23;21.20;60.10
7254;DHT22;4060;49.186;9.226;2023-10-13T00:54:06;21.20;60.20
7254;DHT22;4060;49.186;9.226;2023-10-13T00:56:40;21.20;60.20
7254;DHT22;4060;49.186;9.226;2023-10-13T00:59:14;21.20;60.20
7254;DHT22;4060;49.186;9.226;2023-10-13T01:01:42;21.20;60.30
7254;DHT22;4060;49.186;9.226;2023-10-13T01:04:12;21.20;60.30
7254;DHT22;4060;49.186;9.226;2023-10-13T01:06:44;21.20;60.30
7254;DHT22;4060;49.186;9.226;2023-10-13T01:09:14;21.20;60.40
7254;DHT22;4060;49.186;9.226;2023-10-13T01:11:45;21.10;60.30
7254;DHT22;4060;49.186;9.226;2023-10-13T01:14:20;21.10;60.30
7254;DHT22;4060;49.186;9.226;2023-10-13T01:16:49;21.10;60.30
7254;DHT22;4060;49.186;9.226;2023-10-13T01:19:20;21.10;60.30
7254;DHT22;4060;49.186;9.226;2023-10-13T01:21:56;21.10;60.30
7254;DHT22;4060;49.186;9.226;2023-10-13T01:24:32;21.10;60.40
7254;DHT22;4060;49.186;9.226;2023-10-13T01:27:02;21.10;60.40
7254;DHT22;4060;49.186;9.226;2023-10-13T01:29:44;21.10;60.40
7254;DHT22;4060;49.186;9.226;2023-10-13T01:32:18;21.10;60.40
7254;DHT22;4060;49.186;9.226;2023-10-13T01:34:47;21.10;60.40
7254;DHT22;4060;49.186;9.226;2023-10-13T01:37:16;21.10;60.50
7254;DHT22;4060;49.186;9.226;2023-10-13T01:39:48;21.10;60.50
7254;DHT22;4060;49.186;9.226;2023-10-13T01:42:17;21.10;60.50
7254;DHT22;4060;49.186;9.226;2023-10-13T01:44:48;21.00;60.50
7254;DHT22;4060;49.186;9.226;2023-10-13T01:47:16;21.00;60.40
7254;DHT22;4060;49.186;9.226;2023-10-13T01:49:46;21.00;60.40
7254;DHT22;4060;49.186;9.226;2023-10-13T01:52:17;21.00;60.40
7254;DHT22;4060;49.186;9.226;2023-10-13T01:54:48;21.00;60.40
7254;DHT22;4060;49.186;9.226;2023-10-13T01:57:18;21.00;60.40
7254;DHT22;4060;49.186;9.226;2023-10-13T01:59:47;21.00;60.40
7254;DHT22;4060;49.186;9.226;2023-10-13T02:02:16;21.00;60.50
7254;DHT22;4060;49.186;9.226;2023-10-13T02:04:56;20.90;60.40
7254;DHT22;4060;49.186;9.226;2023-10-13T02:07:27;20.90;60.30
7254;DHT22;4060;49.186;9.226;2023-10-13T02:09:59;20.90;60.40
7254;DHT22;4060;49.186;9.226;2023-10-13T02:12:31;20.90;60.30
7254;DHT22;4060;49.186;9.226;2023-10-13T02:15:05;20.90;60.30
7254;DHT22;4060;49.186;9.226;2023-10-13T02:17:34;20.90;60.30
7254;DHT22;4060;49.186;9.226;2023-10-13T02:20:09;20.90;60.40
7254;DHT22;4060;49.186;9.226;2023-10-13T02:22:42;20.90;60.40
7254;DHT22;4060;49.186;9.226;2023-10-13T02:25:18;20.90;60.40
7254;DHT22;4060;49.186;9.226;2023-10-13T02:28:03;20.90;60.40
7254;DHT22;4060;49.186;9.226;2023-10-13T02:30:38;20.80;60.30
7254;DHT22;4060;49.186;9.226;2023-10-13T02:33:12;20.80;60.30
7254;DHT22;4060;49.186;9.226;2023-10-13T02:35:41;20.80;60.30
7254;DHT22;4060;49.186;9.226;2023-10-13T02:38:17;20.80;60.40
7254;DHT22;4060;49.186;9.226;2023-10-13T02:40:56;20.80;60.30
7254;DHT22;4060;49.186;9.226;2023-10-13T02:43:34;20.80;60.40
7254;DHT22;4060;49.186;9.226;2023-10-13T02:46:02;20.80;60.50
7254;DHT22;4060;49.186;9.226;2023-10-13T02:48:32;20.80;60.50
7254;DHT22;4060;49.186;9.226;2023-10-13T02:51:08;20.80;60.50
7254;DHT22;4060;49.186;9.226;2023-10-13T02:53:45;20.70;60.30
7254;DHT22;4060;49.186;9.226;2023-10-13T02:56:18;20.70;60.40
7254;DHT22;4060;49.186;9.226;2023-10-13T02:58:49;20.70;60.30
7254;DHT22;4060;49.186;9.226;2023-10-13T03:01:21;20.70;60.30
7254;DHT22;4060;49.186;9.226;2023-10-13T03:03:55;20.70;60.20
7254;DHT22;4060;49.186;9.226;2023-10-13T03:06:26;20.70;60.30
7254;DHT22;4060;49.186;9.226;2023-10-13T03:09:02;20.70;61.10
7254;DHT22;4060;49.186;9.226;2023-10-13T03:11:44;20.70;60.30
7254;DHT22;4060;49.186;9.226;2023-10-13T03:14:16;20.70;60.30
7254;DHT22;4060;49.186;9.226;2023-10-13T03:16:59;20.70;60.30
7254;DHT22;4060;49.186;9.226;2023-10-13T03:19:30;20.60;60.10
7254;DHT22;4060;49.186;9.226;2023-10-13T03:22:03;20.60;60.10
7254;DHT22;4060;49.186;9.226;2023-10-13T03:24:36;20.60;61.00
7254;DHT22;4060;49.186;9.226;2023-10-13T03:27:15;20.60;60.20
7254;DHT22;4060;49.186;9.226;2023-10-13T03:29:51;20.60;60.10
7254;DHT22;4060;49.186;9.226;2023-10-13T03:32:21;20.60;60.20
7254;DHT22;4060;49.186;9.226;2023-10-13T03:34:53;20.60;60.20
7254;DHT22;4060;49.186;9.226;2023-10-13T03:37:39;20.60;60.10
7254;DHT22;4060;49.186;9.226;2023-10-13T03:40:10;20.60;60.20
7254;DHT22;4060;49.186;9.226;2023-10-13T03:43:04;20.50;60.10
7254;DHT22;4060;49.186;9.226;2023-10-13T03:45:35;20.50;60.20
7254;DHT22;4060;49.186;9.226;2023-10-13T03:48:07;20.50;60.20
7254;DHT22;4060;49.186;9.226;2023-10-13T03:50:57;20.50;60.20
7254;DHT22;4060;49.186;9.226;2023-10-13T03:53:30;20.50;60.20
7254;DHT22;4060;49.186;9.226;2023-10-13T03:56:04;20.50;60.30
7254;DHT22;4060;49.186;9.226;2023-10-13T03:58:44;20.50;60.30
7254;DHT22;4060;49.186;9.226;2023-10-13T04:01:15;20.50;60.40
7254;DHT22;4060;49.186;9.226;2023-10-13T04:03:44;20.50;60.40
7254;DHT22;4060;49.186;9.226;2023-10-13T04:06:31;20.50;60.50
7254;DHT22;4060;49.186;9.226;2023-10-13T04:09:18;20.50;60.50
7254;DHT22;4060;49.186;9.226;2023-10-13T04:12:05;20.40;60.40
7254;DHT22;4060;49.186;9.226;2023-10-13T04:14:50;20.40;60.50
7254;DHT22;4060;49.186;9.226;2023-10-13T04:17:41;20.40;60.50
7254;DHT22;4060;49.186;9.226;2023-10-13T04:20:13;20.40;60.60
7254;DHT22;4060;49.186;9.226;2023-10-13T04:22:54;20.40;60.60
7254;DHT22;4060;49.186;9.226;2023-10-13T04:25:37;20.40;60.60
7254;DHT22;4060;49.186;9.226;2023-10-13T04:28:19;20.40;60.70
7254;DHT22;4060;49.186;9.226;2023-10-13T04:31:20;20.40;60.70
7254;DHT22;4060;49.186;9.226;2023-10-13T04:34:08;20.40;61.50
7254;DHT22;4060;49.186;9.226;2023-10-13T04:36:47;20.30;60.60
7254;DHT22;4060;49.186;9.226;2023-10-13T04:39:23;20.30;60.70
7254;DHT22;4060;49.186;9.226;2023-10-13T04:42:03;20.40;60.70
7254;DHT22;4060;49.186;9.226;2023-10-13T04:44:41;20.30;60.70
7254;DHT22;4060;49.186;9.226;2023-10-13T04:47:21;20.30;60.80
7254;DHT22;4060;49.186;9.226;2023-10-13T04:49:49;20.30;60.80
7254;DHT22;4060;49.186;9.226;2023-10-13T04:52:19;20.30;60.80
7254;DHT22;4060;49.186;9.226;2023-10-13T04:55:06;20.30;60.80
7254;DHT22;4060;49.186;9.226;2023-10-13T04:57:52;20.30;60.80
7254;DHT22;4060;49.186;9.226;2023-10-13T05:00:39;20.30;60.80
7254;DHT22;4060;49.186;9.226;2023-10-13T05:03:38;20.30;60.80
7254;DHT22;4060;49.186;9.226;2023-10-13T05:06:24;20.30;61.70
7254;DHT22;4060;49.186;9.226;2023-10-13T05:09:10;20.20;60.80
7254;DHT22;4060;49.186;9.226;2023-10-13T05:11:57;20.20;60.80
7254;DHT22;4060;49.186;9.226;2023-10-13T05:14:43;20.20;60.80
7254;DHT22;4060;49.186;9.226;2023-10-13T05:17:30;20.20;60.90
7254;DHT22;4060;49.186;9.226;2023-10-13T05:20:18;20.20;60.90
7254;DHT22;4060;49.186;9.226;2023-10-13T05:23:04;20.20;60.90
7254;DHT22;4060;49.186;9.226;2023-10-13T05:25:50;20.20;60.90
7254;DHT22;4060;49.186;9.226;2023-10-13T05:28:36;20.20;60.90
7254;DHT22;4060;49.186;9.226;2023-10-13T05:31:22;20.20;60.90
7254;DHT22;4060;49.186;9.226;2023-10-13T05:34:07;20.20;60.90
7254;DHT22;4060;49.186;9.226;2023-10-13T05:36:55;20.10;60.80
7254;DHT22;4060;49.186;9.226;2023-10-13T05:39:41;20.10;60.80
7254;DHT22;4060;49.186;9.226;2023-10-13T05:42:24;20.10;60.80
7254;DHT22;4060;49.186;9.226;2023-10-13T05:45:10;20.10;60.90
7254;DHT22;4060;49.186;9.226;2023-10-13T05:48:07;20.10;60.80
7254;DHT22;4060;49.186;9.226;2023-10-13T05:50:51;20.10;60.80
7254;DHT22;4060;49.186;9.226;2023-10-13T05:53:42;20.10;60.80
7254;DHT22;4060;49.186;9.226;2023-10-13T05:56:28;20.10;60.90
7254;DHT22;4060;49.186;9.226;2023-10-13T05:59:13;20.10;60.80
7254;DHT22;4060;49.186;9.226;2023-10-13T06:01:59;20.10;60.80
7254;DHT22;4060;49.186;9.226;2023-10-13T06:04:46;20.10;60.70
7254;DHT22;4060;49.186;9.226;2023-10-13T06:07:31;20.00;60.60
7254;DHT22;4060;49.186;9.226;2023-10-13T06:10:19;20.00;60.70
7254;DHT22;4060;49.186;9.226;2023-10-13T06:13:05;20.00;60.70
7254;DHT22;4060;49.186;9.226;2023-10-13T06:15:51;20.00;60.80
7254;DHT22;4060;49.186;9.226;2023-10-13T06:18:37;20.00;61.50
7254;DHT22;4060;49.186;9.226;2023-10-13T06:21:23;20.00;60.70
7254;DHT22;4060;49.186;9.226;2023-10-13T06:24:08;20.00;60.70
7254;DHT22;4060;49.186;9.226;2023-10-13T06:26:56;20.00;60.70
7254;DHT22;4060;49.186;9.226;2023-10-13T06:29:42;19.90;60.60
7254;DHT22;4060;49.186;9.226;2023-10-13T06:32:13;19.90;60.60
7254;DHT22;4060;49.186;9.226;2023-10-13T06:34:43;20.00;60.80
7254;DHT22;4060;49.186;9.226;2023-10-13T06:37:15;19.90;60.60
7254;DHT22;4060;49.186;9.226;2023-10-13T06:39:59;20.00;60.70
7254;DHT22;4060;49.186;9.226;2023-10-13T06:42:35;19.90;60.60
7254;DHT22;4060;49.186;9.226;2023-10-13T06:45:10;20.00;60.70
7254;DHT22;4060;49.186;9.226;2023-10-13T06:47:40;19.90;60.50
7254;DHT22;4060;49.186;9.226;2023-10-13T06:50:10;19.90;60.60
7254;DHT22;4060;49.186;9.226;2023-10-13T06:52:47;20.00;60.80
7254;DHT22;4060;49.186;9.226;2023-10-13T06:55:17;20.00;61.00
7254;DHT22;4060;49.186;9.226;2023-10-13T06:57:54;19.90;61.20
7254;DHT22;4060;49.186;9.226;2023-10-13T07:00:27;20.00;61.50
7254;DHT22;4060;49.186;9.226;2023-10-13T07:02:57;20.00;61.70
7254;DHT22;4060;49.186;9.226;2023-10-13T07:05:36;19.90;61.70
7254;DHT22;4060;49.186;9.226;2023-10-13T07:08:10;20.00;61.80
7254;DHT22;4060;49.186;9.226;2023-10-13T07:10:49;20.00;61.90
7254;DHT22;4060;49.186;9.226;2023-10-13T07:13:32;20.00;61.90
7254;DHT22;4060;49.186;9.226;2023-10-13T07:16:06;20.00;62.00
7254;DHT22;4060;49.186;9.226;2023-10-13T07:18:40;20.10;62.20
7254;DHT22;4060;49.186;9.226;2023-10-13T07:21:17;20.10;62.40
7254;DHT22;4060;49.186;9.226;2023-10-13T07:23:53;20.10;62.40
7254;DHT22;4060;49.186;9.226;2023-10-13T07:26:36;20.10;62.60
7254;DHT22;4060;49.186;9.226;2023-10-13T07:29:12;20.10;62.60
7254;DHT22;4060;49.186;9.226;2023-10-13T07:31:41;20.20;62.90
7254;DHT22;4060;49.186;9.226;2023-10-13T07:34:12;20.20;62.90
7254;DHT22;4060;49.186;9.226;2023-10-13T07:36:53;20.30;63.20
7254;DHT22;4060;49.186;9.226;2023-10-13T07:39:28;20.30;63.40
7254;DHT22;4060;49.186;9.226;2023-10-13T07:42:01;20.30;63.40
7254;DHT22;4060;49.186;9.226;2023-10-13T07:44:44;20.30;63.50
7254;DHT22;4060;49.186;9.226;2023-10-13T07:47:15;20.40;63.70
7254;DHT22;4060;49.186;9.226;2023-10-13T07:49:47;20.40;63.60
7254;DHT22;4060;49.186;9.226;2023-10-13T07:52:17;20.40;63.70
7254;DHT22;4060;49.186;9.226;2023-10-13T07:55:03;20.50;63.90
7254;DHT22;4060;49.186;9.226;2023-10-13T07:57:47;20.50;63.90
7254;DHT22;4060;49.186;9.226;2023-10-13T08:00:28;20.60;64.00
7254;DHT22;4060;49.186;9.226;2023-10-13T08:03:15;20.60;64.00
7254;DHT22;4060;49.186;9.226;2023-10-13T08:05:59;20.60;64.00
7254;DHT22;4060;49.186;9.226;2023-10-13T08:08:47;20.70;64.10
7254;DHT22;4060;49.186;9.226;2023-10-13T08:11:20;20.70;64.00
7254;DHT22;4060;49.186;9.226;2023-10-13T08:13:59;20.70;64.00
7254;DHT22;4060;49.186;9.226;2023-10-13T08:16:40;20.70;63.90
7254;DHT22;4060;49.186;9.226;2023-10-13T08:19:27;20.80;64.00
7254;DHT22;4060;49.186;9.226;2023-10-13T08:22:08;20.80;63.80
7254;DHT22;4060;49.186;9.226;2023-10-13T08:24:54;20.80;63.70
7254;DHT22;4060;49.186;9.226;2023-10-13T08:27:39;20.80;63.60
7254;DHT22;4060;49.186;9.226;2023-10-13T08:30:34;20.90;63.60
7254;DHT22;4060;49.186;9.226;2023-10-13T08:33:22;20.90;63.40
7254;DHT22;4060;49.186;9.226;2023-10-13T08:35:54;21.00;63.40
7254;DHT22;4060;49.186;9.226;2023-10-13T08:38:44;21.00;63.20
7254;DHT22;4060;49.186;9.226;2023-10-13T08:41:24;21.00;62.90
7254;DHT22;4060;49.186;9.226;2023-10-13T08:44:03;21.00;62.60
7254;DHT22;4060;49.186;9.226;2023-10-13T08:46:38;21.10;62.40
7254;DHT22;4060;49.186;9.226;2023-10-13T08:49:36;21.10;62.00
7254;DHT22;4060;49.186;9.226;2023-10-13T08:52:23;21.10;61.60
7254;DHT22;4060;49.186;9.226;2023-10-13T08:55:16;21.10;61.20
7254;DHT22;4060;49.186;9.226;2023-10-13T08:58:25;21.20;60.90
7254;DHT22;4060;49.186;9.226;2023-10-13T09:01:14;21.20;60.60
7254;DHT22;4060;49.186;9.226;2023-10-13T09:04:02;21.20;60.40
7254;DHT22;4060;49.186;9.226;2023-10-13T09:06:48;21.20;60.00
7254;DHT22;4060;49.186;9.226;2023-10-13T09:09:28;21.30;59.80
7254;DHT22;4060;49.186;9.226;2023-10-13T09:12:11;21.30;59.50
7254;DHT22;4060;49.186;9.226;2023-10-13T09:14:41;21.30;59.90
7254;DHT22;4060;49.186;9.226;2023-10-13T09:17:12;21.30;59.10
7254;DHT22;4060;49.186;9.226;2023-10-13T09:20:02;21.40;58.90
7254;DHT22;4060;49.186;9.226;2023-10-13T09:22:53;21.40;58.50
7254;DHT22;4060;49.186;9.226;2023-10-13T09:25:35;21.40;58.30
7254;DHT22;4060;49.186;9.226;2023-10-13T09:28:10;21.40;58.20
7254;DHT22;4060;49.186;9.226;2023-10-13T09:30:45;21.40;58.00
7254;DHT22;4060;49.186;9.226;2023-10-13T09:33:13;21.50;57.80
7254;DHT22;4060;49.186;9.226;2023-10-13T09:35:47;21.50;57.60
7254;DHT22;4060;49.186;9.226;2023-10-13T09:38:18;21.50;57.30
7254;DHT22;4060;49.186;9.226;2023-10-13T09:40:47;21.60;57.10
7254;DHT22;4060;49.186;9.226;2023-10-13T09:43:17;21.60;57.00
7254;DHT22;4060;49.186;9.226;2023-10-13T09:45:49;21.60;56.80
7254;DHT22;4060;49.186;9.226;2023-10-13T09:48:33;21.60;56.40
7254;DHT22;4060;49.186;9.226;2023-10-13T09:51:03;21.70;56.10
7254;DHT22;4060;49.186;9.226;2023-10-13T09:53:36;21.70;55.90
7254;DHT22;4060;49.186;9.226;2023-10-13T09:56:21;21.70;55.60
7254;DHT22;4060;49.186;9.226;2023-10-13T09:58:58;21.70;55.40
7254;DHT22;4060;49.186;9.226;2023-10-13T10:01:40;21.80;55.40
7254;DHT22;4060;49.186;9.226;2023-10-13T10:04:18;21.80;55.20
7254;DHT22;4060;49.186;9.226;2023-10-13T10:06:53;21.90;55.10
7254;DHT22;4060;49.186;9.226;2023-10-13T10:09:30;21.80;54.90
7254;DHT22;4060;49.186;9.226;2023-10-13T10:12:20;21.90;54.70
7254;DHT22;4060;49.186;9.226;2023-10-13T10:15:22;22.00;54.50
7254;DHT22;4060;49.186;9.226;2023-10-13T10:17:57;22.00;54.40
7254;DHT22;4060;49.186;9.226;2023-10-13T10:20:29;22.00;54.40
7254;DHT22;4060;49.186;9.226;2023-10-13T10:23:07;22.00;54.10
7254;DHT22;4060;49.186;9.226;2023-10-13T10:25:51;22.00;54.00
7254;DHT22;4060;49.186;9.226;2023-10-13T10:28:21;22.10;54.00
7254;DHT22;4060;49.186;9.226;2023-10-13T10:30:50;22.10;53.80
7254;DHT22;4060;49.186;9.226;2023-10-13T10:33:31;22.10;53.70
7254;DHT22;4060;49.186;9.226;2023-10-13T10:36:02;22.20;53.60
7254;DHT22;4060;49.186;9.226;2023-10-13T10:38:32;22.20;53.50
7254;DHT22;4060;49.186;9.226;2023-10-13T10:41:07;22.20;53.20
7254;DHT22;4060;49.186;9.226;2023-10-13T10:43:40;22.30;53.10
7254;DHT22;4060;49.186;9.226;2023-10-13T10:46:15;22.30;53.10
7254;DHT22;4060;49.186;9.226;2023-10-13T10:48:45;22.30;53.00
7254;DHT22;4060;49.186;9.226;2023-10-13T10:51:16;22.40;52.80
7254;DHT22;4060;49.186;9.226;2023-10-13T10:53:51;22.40;52.50
7254;DHT22;4060;49.186;9.226;2023-10-13T10:56:25;22.50;52.30
7254;DHT22;4060;49.186;9.226;2023-10-13T10:59:05;22.50;52.00
7254;DHT22;4060;49.186;9.226;2023-10-13T11:01:45;22.50;52.00
7254;DHT22;4060;49.186;9.226;2023-10-13T11:04:18;22.60;52.00
7254;DHT22;4060;49.186;9.226;2023-10-13T11:06:53;22.60;51.90
7254;DHT22;4060;49.186;9.226;2023-10-13T11:09:27;22.60;51.70
7254;DHT22;4060;49.186;9.226;2023-10-13T11:12:11;22.70;51.60
7254;DHT22;4060;49.186;9.226;2023-10-13T11:14:44;22.70;51.50
7254;DHT22;4060;49.186;9.226;2023-10-13T11:17:21;22.80;51.40
7254;DHT22;4060;49.186;9.226;2023-10-13T11:19:53;22.80;51.30
7254;DHT22;4060;49.186;9.226;2023-10-13T11:22:23;22.80;51.20
7254;DHT22;4060;49.186;9.226;2023-10-13T11:25:05;22.90;51.00
7254;DHT22;4060;49.186;9.226;2023-10-13T11:27:41;22.90;50.80
7254;DHT22;4060;49.186;9.226;2023-10-13T11:30:24;23.00;50.70
7254;DHT22;4060;49.186;9.226;2023-10-13T11:33:04;23.00;50.60
7254;DHT22;4060;49.186;9.226;2023-10-13T11:35:34;23.10;50.40
7254;DHT22;4060;49.186;9.226;2023-10-13T11:38:21;23.10;50.30
7254;DHT22;4060;49.186;9.226;2023-10-13T11:40:56;23.20;50.20
7254;DHT22;4060;49.186;9.226;2023-10-13T11:43:42;23.20;50.00
7254;DHT22;4060;49.186;9.226;2023-10-13T11:46:34;23.20;49.90
7254;DHT22;4060;49.186;9.226;2023-10-13T11:49:19;23.30;49.90
7254;DHT22;4060;49.186;9.226;2023-10-13T11:51:59;23.30;49.80
7254;DHT22;4060;49.186;9.226;2023-10-13T11:54:45;23.40;49.70
7254;DHT22;4060;49.186;9.226;2023-10-13T11:57:15;23.40;49.60
7254;DHT22;4060;49.186;9.226;2023-10-13T11:59:50;23.40;49.50
7254;DHT22;4060;49.186;9.226;2023-10-13T12:02:44;23.50;49.40
7254;DHT22;4060;49.186;9.226;2023-10-13T12:05:32;23.50;49.40
7254;DHT22;4060;49.186;9.226;2023-10-13T12:08:17;23.50;49.40
7254;DHT22;4060;49.186;9.226;2023-10-13T12:11:02;23.60;49.30
7254;DHT22;4060;49.186;9.226;2023-10-13T12:13:51;23.60;49.10
7254;DHT22;4060;49.186;9.226;2023-10-13T12:16:22;23.60;49.10
7254;DHT22;4060;49.186;9.226;2023-10-13T12:19:01;23.70;49.00
7254;DHT22;4060;49.186;9.226;2023-10-13T12:21:35;23.70;48.80
7254;DHT22;4060;49.186;9.226;2023-10-13T12:24:06;23.80;49.30
7254;DHT22;4060;49.186;9.226;2023-10-13T12:26:40;23.80;48.60
7254;DHT22;4060;49.186;9.226;2023-10-13T12:29:10;23.90;48.50
7254;DHT22;4060;49.186;9.226;2023-10-13T12:31:52;23.90;48.30
7254;DHT22;4060;49.186;9.226;2023-10-13T12:34:34;24.00;48.10
7254;DHT22;4060;49.186;9.226;2023-10-13T12:37:26;24.00;48.00
7254;DHT22;4060;49.186;9.226;2023-10-13T12:40:20;24.10;47.90
7254;DHT22;4060;49.186;9.226;2023-10-13T12:43:06;24.10;47.70
7254;DHT22;4060;49.186;9.226;2023-10-13T12:45:52;24.20;47.60
7254;DHT22;4060;49.186;9.226;2023-10-13T12:48:39;24.20;47.50
7254;DHT22;4060;49.186;9.226;2023-10-13T12:51:25;24.20;47.30
7254;DHT22;4060;49.186;9.226;2023-10-13T12:54:08;24.30;47.20
7254;DHT22;4060;49.186;9.226;2023-10-13T12:56:48;24.30;47.00
7254;DHT22;4060;49.186;9.226;2023-10-13T12:59:24;24.30;46.80
7254;DHT22;4060;49.186;9.226;2023-10-13T13:01:55;24.40;46.60
7254;DHT22;4060;49.186;9.226;2023-10-13T13:04:26;24.50;46.50
7254;DHT22;4060;49.186;9.226;2023-10-13T13:07:02;24.50;46.20
7254;DHT22;4060;49.186;9.226;2023-10-13T13:09:32;24.60;46.10
7254;DHT22;4060;49.186;9.226;2023-10-13T13:12:05;24.60;46.00
7254;DHT22;4060;49.186;9.226;2023-10-13T13:14:35;24.60;45.70
7254;DHT22;4060;49.186;9.226;2023-10-13T13:17:07;24.60;45.40
7254;DHT22;4060;49.186;9.226;2023-10-13T13:19:38;24.60;45.30
7254;DHT22;4060;49.186;9.226;2023-10-13T13:22:08;24.70;45.10
7254;DHT22;4060;49.186;9.226;2023-10-13T13:24:40;24.70;45.10
7254;DHT22;4060;49.186;9.226;2023-10-13T13:27:11;24.70;45.00
7254;DHT22;4060;49.186;9.226;2023-10-13T13:29:41;24.80;44.90
7254;DHT22;4060;49.186;9.226;2023-10-13T13:32:10;24.80;44.80
7254;DHT22;4060;49.186;9.226;2023-10-13T13:34:53;24.80;44.60
7254;DHT22;4060;49.186;9.226;2023-10-13T13:37:30;24.80;44.50
7254;DHT22;4060;49.186;9.226;2023-10-13T13:40:03;24.90;44.30
7254;DHT22;4060;49.186;9.226;2023-10-13T13:42:43;24.90;44.00
7254;DHT22;4060;49.186;9.226;2023-10-13T13:45:13;24.90;43.80
7254;DHT22;4060;49.186;9.226;2023-10-13T13:47:59;25.00;43.70
7254;DHT22;4060;49.186;9.226;2023-10-13T13:50:38;24.90;43.40
7254;DHT22;4060;49.186;9.226;2023-10-13T13:53:08;25.00;43.30
7254;DHT22;4060;49.186;9.226;2023-10-13T13:55:38;25.00;43.20
7254;DHT22;4060;49.186;9.226;2023-10-13T13:58:08;25.00;43.10
7254;DHT22;4060;49.186;9.226;2023-10-13T14:00:40;25.10;43.10
7254;DHT22;4060;49.186;9.226;2023-10-13T14:03:15;25.10;43.00
7254;DHT22;4060;49.186;9.226;2023-10-13T14:06:01;25.10;43.00
7254;DHT22;4060;49.186;9.226;2023-10-13T14:08:30;25.10;42.90
7254;DHT22;4060;49.186;9.226;2023-10-13T14:11:01;25.20;42.90
7254;DHT22;4060;49.186;9.226;2023-10-13T14:14:12;25.20;42.80
7254;DHT22;4060;49.186;9.226;2023-10-13T14:16:41;25.20;42.80
7254;DHT22;4060;49.186;9.226;2023-10-13T14:19:14;25.20;42.60
7254;DHT22;4060;49.186;9.226;2023-10-13T14:21:50;25.30;42.50
7254;DHT22;4060;49.186;9.226;2023-10-13T14:24:21;25.30;42.50
7254;DHT22;4060;49.186;9.226;2023-10-13T14:26:54;25.30;42.30
7254;DHT22;4060;49.186;9.226;2023-10-13T14:29:24;25.30;42.10
7254;DHT22;4060;49.186;9.226;2023-10-13T14:31:55;25.40;42.10
7254;DHT22;4060;49.186;9.226;2023-10-13T14:34:26;25.40;42.00
7254;DHT22;4060;49.186;9.226;2023-10-13T14:36:57;25.40;42.00
7254;DHT22;4060;49.186;9.226;2023-10-13T14:39:27;25.40;42.00
7254;DHT22;4060;49.186;9.226;2023-10-13T14:41:57;25.50;42.00
7254;DHT22;4060;49.186;9.226;2023-10-13T14:44:27;25.40;41.90
7254;DHT22;4060;49.186;9.226;2023-10-13T14:46:56;25.50;41.80
7254;DHT22;4060;49.186;9.226;2023-10-13T14:49:26;25.50;41.70
7254;DHT22;4060;49.186;9.226;2023-10-13T14:51:57;25.50;41.60
7254;DHT22;4060;49.186;9.226;2023-10-13T14:54:27;25.50;41.60
7254;DHT22;4060;49.186;9.226;2023-10-13T14:57:06;25.50;41.50
7254;DHT22;4060;49.186;9.226;2023-10-13T14:59:35;25.60;41.40
7254;DHT22;4060;49.186;9.226;2023-10-13T15:02:05;25.60;41.30
7254;DHT22;4060;49.186;9.226;2023-10-13T15:04:35;25.60;41.30
7254;DHT22;4060;49.186;9.226;2023-10-13T15:07:06;25.60;41.30
7254;DHT22;4060;49.186;9.226;2023-10-13T15:09:35;25.60;41.20
7254;DHT22;4060;49.186;9.226;2023-10-13T15:12:10;25.60;41.10
7254;DHT22;4060;49.186;9.226;2023-10-13T15:14:39;25.60;41.10
7254;DHT22;4060;49.186;9.226;2023-10-13T15:17:09;25.60;41.10
7254;DHT22;4060;49.186;9.226;2023-10-13T15:19:43;25.60;41.00
7254;DHT22;4060;49.186;9.226;2023-10-13T15:22:15;25.60;41.00
7254;DHT22;4060;49.186;9.226;2023-10-13T15:24:53;25.60;41.00
7254;DHT22;4060;49.186;9.226;2023-10-13T15:27:36;25.60;40.90
7254;DHT22;4060;49.186;9.226;2023-10-13T15:30:09;25.60;40.90
7254;DHT22;4060;49.186;9.226;2023-10-13T15:32:48;25.60;40.80
7254;DHT22;4060;49.186;9.226;2023-10-13T15:35:18;25.70;40.80
7254;DHT22;4060;49.186;9.226;2023-10-13T15:37:52;25.70;40.70
7254;DHT22;4060;49.186;9.226;2023-10-13T15:40:29;25.60;40.60
7254;DHT22;4060;49.186;9.226;2023-10-13T15:42:58;25.70;40.70
7254;DHT22;4060;49.186;9.226;2023-10-13T15:45:31;25.60;40.50
7254;DHT22;4060;49.186;9.226;2023-10-13T15:48:06;25.70;40.60
7254;DHT22;4060;49.186;9.226;2023-10-13T15:50:38;25.70;40.70
7254;DHT22;4060;49.186;9.226;2023-10-13T15:53:12;25.60;40.60
7254;DHT22;4060;49.186;9.226;2023-10-13T15:55:42;25.70;40.60
7254;DHT22;4060;49.186;9.226;2023-10-13T15:58:13;25.70;40.70
7254;DHT22;4060;49.186;9.226;2023-10-13T16:00:43;25.70;40.60
7254;DHT22;4060;49.186;9.226;2023-10-13T16:03:14;25.70;40.50
7254;DHT22;4060;49.186;9.226;2023-10-13T16:05:44;25.70;40.50
7254;DHT22;4060;49.186;9.226;2023-10-13T16:08:16;25.70;40.50
7254;DHT22;4060;49.186;9.226;2023-10-13T16:10:46;25.70;40.40
7254;DHT22;4060;49.186;9.226;2023-10-13T16:13:17;25.70;40.90
7254;DHT22;4060;49.186;9.226;2023-10-13T16:15:47;25.70;40.40
7254;DHT22;4060;49.186;9.226;2023-10-13T16:18:17;25.70;40.50
7254;DHT22;4060;49.186;9.226;2023-10-13T16:20:49;25.70;40.50
7254;DHT22;4060;49.186;9.226;2023-10-13T16:23:21;25.70;40.50
7254;DHT22;4060;49.186;9.226;2023-10-13T16:25:51;25.60;40.50
7254;DHT22;4060;49.186;9.226;2023-10-13T16:28:23;25.60;40.60
7254;DHT22;4060;49.186;9.226;2023-10-13T16:30:53;25.60;40.60
7254;DHT22;4060;49.186;9.226;2023-10-13T16:33:24;25.60;40.70
7254;DHT22;4060;49.186;9.226;2023-10-13T16:35:55;25.60;41.00
7254;DHT22;4060;49.186;9.226;2023-10-13T16:38:27;25.60;41.10
7254;DHT22;4060;49.186;9.226;2023-10-13T16:40:57;25.60;41.30
7254;DHT22;4060;49.186;9.226;2023-10-13T16:43:26;25.60;41.40
7254;DHT22;4060;49.186;9.226;2023-10-13T16:45:56;25.60;41.60
7254;DHT22;4060;49.186;9.226;2023-10-13T16:48:25;25.60;41.90
7254;DHT22;4060;49.186;9.226;2023-10-13T16:50:58;25.60;41.90
7254;DHT22;4060;49.186;9.226;2023-10-13T16:53:29;25.50;42.40
7254;DHT22;4060;49.186;9.226;2023-10-13T16:55:59;25.50;42.00
7254;DHT22;4060;49.186;9.226;2023-10-13T16:58:29;25.50;42.10
7254;DHT22;4060;49.186;9.226;2023-10-13T17:01:01;25.50;42.20
7254;DHT22;4060;49.186;9.226;2023-10-13T17:03:37;25.50;42.20
7254;DHT22;4060;49.186;9.226;2023-10-13T17:06:09;25.40;42.20